Garwood, Texas
Current Conditions -  °F | °C
As of 5:55 AM on Sunday 21 Dec 2014 (Local Time) from KELA Reporting Station
Overcast Overcast  
Wind Chill: 51°   Ceiling: 1600
Heat Index: 51°   Visibility: 7mi
Dew Point: 49°   Wind: 3mph
Humidity: 95%   Direction: 30°NNE
Pressure: 30.1"   Gusts: NA
Location:  29.45°N, 96.4°W
Report Text: KELA 211155Z AUTO 03003KT 7SM SCT011 OVC016 11/10 A3010 RMK AO2 T01050097 10108 20103
Loading
Personal Weather Stations






























Interactive Weather Map New forecast layout! Learn more

10-Day Weather Forecast

Advertisements
Track Severe Weather on mobile